sensor_id;sensor_type;location;lat;lon;timestamp;pressure;altitude;pressure_sealevel;temperature;humidity
5238;BME280;2639;49.700;7.962;2023-05-23T03:03:41;98768.31;;;16.07;100.00
5238;BME280;2639;49.700;7.962;2023-05-23T03:04:44;98761.38;;;16.06;100.00
5238;BME280;2639;49.700;7.962;2023-05-23T03:05:46;98762.63;;;15.98;100.00
5238;BME280;2639;49.700;7.962;2023-05-23T03:06:49;98763.22;;;15.92;100.00
5238;BME280;2639;49.700;7.962;2023-05-23T03:07:54;98762.16;;;15.89;100.00
5238;BME280;2639;49.700;7.962;2023-05-23T03:08:58;98762.16;;;15.89;100.00
5238;BME280;2639;49.700;7.962;2023-05-23T03:10:00;98758.44;;;15.84;100.00
5238;BME280;2639;49.700;7.962;2023-05-23T03:11:03;98765.22;;;15.82;100.00
5238;BME280;2639;49.700;7.962;2023-05-23T03:12:05;98768.63;;;15.81;100.00
5238;BME280;2639;49.700;7.962;2023-05-23T03:13:08;98761.66;;;15.80;100.00
5238;BME280;2639;49.700;7.962;2023-05-23T03:14:10;98767.81;;;15.82;100.00
5238;BME280;2639;49.700;7.962;2023-05-23T03:15:13;98766.97;;;15.83;100.00
5238;BME280;2639;49.700;7.962;2023-05-23T03:16:16;98765.69;;;15.74;100.00
5238;BME280;2639;49.700;7.962;2023-05-23T03:17:19;98765.59;;;15.73;100.00
5238;BME280;2639;49.700;7.962;2023-05-23T03:18:21;98770.88;;;15.74;100.00
5238;BME280;2639;49.700;7.962;2023-05-23T03:19:25;98772.56;;;15.74;100.00
5238;BME280;2639;49.700;7.962;2023-05-23T03:20:27;98766.66;;;15.76;100.00
5238;BME280;2639;49.700;7.962;2023-05-23T03:21:31;98768.44;;;15.77;100.00
5238;BME280;2639;49.700;7.962;2023-05-23T03:22:33;98770.25;;;15.78;100.00
5238;BME280;2639;49.700;7.962;2023-05-23T03:23:36;98763.25;;;15.77;100.00
5238;BME280;2639;49.700;7.962;2023-05-23T03:24:38;98770.41;;;15.82;100.00
5238;BME280;2639;49.700;7.962;2023-05-23T03:25:41;98765.38;;;15.85;100.00
5238;BME280;2639;49.700;7.962;2023-05-23T03:26:43;98768.94;;;15.87;100.00
5238;BME280;2639;49.700;7.962;2023-05-23T03:27:46;98773.97;;;15.84;100.00
5238;BME280;2639;49.700;7.962;2023-05-23T03:28:48;98776.56;;;15.84;100.00
5238;BME280;2639;49.700;7.962;2023-05-23T03:29:53;98774.84;;;15.84;100.00
5238;BME280;2639;49.700;7.962;2023-05-23T03:30:57;98763.75;;;15.87;100.00
5238;BME280;2639;49.700;7.962;2023-05-23T03:32:00;98769.91;;;15.89;100.00
5238;BME280;2639;49.700;7.962;2023-05-23T03:33:02;98766.34;;;15.87;100.00
5238;BME280;2639;49.700;7.962;2023-05-23T03:34:05;98772.16;;;15.83;100.00
5238;BME280;2639;49.700;7.962;2023-05-23T03:35:08;98777.19;;;15.80;100.00
5238;BME280;2639;49.700;7.962;2023-05-23T03:36:12;98773.72;;;15.79;100.00
5238;BME280;2639;49.700;7.962;2023-05-23T03:37:15;98770.28;;;15.80;100.00
5238;BME280;2639;49.700;7.962;2023-05-23T03:38:18;98769.00;;;15.72;100.00
5238;BME280;2639;49.700;7.962;2023-05-23T03:39:20;98771.50;;;15.70;100.00
5238;BME280;2639;49.700;7.962;2023-05-23T03:40:24;98773.31;;;15.71;100.00
5238;BME280;2639;49.700;7.962;2023-05-23T03:41:26;98778.47;;;15.71;100.00
5238;BME280;2639;49.700;7.962;2023-05-23T03:42:29;98777.66;;;15.72;100.00
5238;BME280;2639;49.700;7.962;2023-05-23T03:43:32;98777.66;;;15.72;100.00
5238;BME280;2639;49.700;7.962;2023-05-23T03:44:34;98777.66;;;15.72;100.00
5238;BME280;2639;49.700;7.962;2023-05-23T03:45:39;98787.03;;;15.70;100.00
5238;BME280;2639;49.700;7.962;2023-05-23T03:46:46;98785.22;;;15.69;100.00
5238;BME280;2639;49.700;7.962;2023-05-23T03:47:50;98788.59;;;15.68;100.00
5238;BME280;2639;49.700;7.962;2023-05-23T03:48:53;98792.66;;;15.63;100.00
5238;BME280;2639;49.700;7.962;2023-05-23T03:49:56;98789.00;;;15.60;100.00
5238;BME280;2639;49.700;7.962;2023-05-23T03:51:01;98789.91;;;15.60;100.00
5238;BME280;2639;49.700;7.962;2023-05-23T03:52:07;98788.09;;;15.59;100.00
5238;BME280;2639;49.700;7.962;2023-05-23T03:53:09;98790.63;;;15.57;100.00
5238;BME280;2639;49.700;7.962;2023-05-23T03:54:14;98790.53;;;15.56;100.00
5238;BME280;2639;49.700;7.962;2023-05-23T03:55:21;98788.91;;;15.58;100.00
5238;BME280;2639;49.700;7.962;2023-05-23T03:56:24;98786.88;;;15.52;100.00
5238;BME280;2639;49.700;7.962;2023-05-23T03:57:26;98789.03;;;15.45;100.00
5238;BME280;2639;49.700;7.962;2023-05-23T03:58:29;98784.84;;;15.47;100.00
5238;BME280;2639;49.700;7.962;2023-05-23T03:59:39;98789.38;;;15.51;100.00
5238;BME280;2639;49.700;7.962;2023-05-23T04:00:45;98787.78;;;15.53;100.00
5238;BME280;2639;49.700;7.962;2023-05-23T04:01:48;98790.28;;;15.51;100.00
5238;BME280;2639;49.700;7.962;2023-05-23T04:02:53;98790.44;;;15.54;100.00
5238;BME280;2639;49.700;7.962;2023-05-23T04:03:58;98792.28;;;15.57;100.00
5238;BME280;2639;49.700;7.962;2023-05-23T04:05:05;98793.22;;;15.57;100.00
5238;BME280;2639;49.700;7.962;2023-05-23T04:06:09;98790.53;;;15.56;100.00
5238;BME280;2639;49.700;7.962;2023-05-23T04:07:17;98790.69;;;15.59;100.00
5238;BME280;2639;49.700;7.962;2023-05-23T04:08:20;98791.66;;;15.61;100.00
5238;BME280;2639;49.700;7.962;2023-05-23T04:09:24;98796.13;;;15.64;100.00
5238;BME280;2639;49.700;7.962;2023-05-23T04:10:27;98804.97;;;15.67;100.00
5238;BME280;2639;49.700;7.962;2023-05-23T04:11:30;98799.78;;;15.67;100.00
5238;BME280;2639;49.700;7.962;2023-05-23T04:12:32;98796.38;;;15.68;100.00
5238;BME280;2639;49.700;7.962;2023-05-23T04:13:35;98798.97;;;15.68;100.00
5238;BME280;2639;49.700;7.962;2023-05-23T04:14:37;98797.19;;;15.67;100.00
5238;BME280;2639;49.700;7.962;2023-05-23T04:15:41;98792.22;;;15.70;100.00
5238;BME280;2639;49.700;7.962;2023-05-23T04:16:46;98796.59;;;15.71;100.00
5238;BME280;2639;49.700;7.962;2023-05-23T04:17:49;98797.56;;;15.73;100.00
5238;BME280;2639;49.700;7.962;2023-05-23T04:18:52;98798.97;;;15.68;100.00
5238;BME280;2639;49.700;7.962;2023-05-23T04:19:56;98802.38;;;15.67;100.00
5238;BME280;2639;49.700;7.962;2023-05-23T04:20:58;98805.06;;;15.69;100.00
5238;BME280;2639;49.700;7.962;2023-05-23T04:22:04;98801.78;;;15.71;100.00
5238;BME280;2639;49.700;7.962;2023-05-23T04:23:06;98811.13;;;15.69;100.00
5238;BME280;2639;49.700;7.962;2023-05-23T04:24:12;98808.56;;;15.54;99.70
5238;BME280;2639;49.700;7.962;2023-05-23T04:25:14;98813.31;;;15.47;99.90
5238;BME280;2639;49.700;7.962;2023-05-23T04:26:26;98813.47;;;15.50;100.00
5238;BME280;2639;49.700;7.962;2023-05-23T04:27:28;98817.13;;;15.53;100.00
5238;BME280;2639;49.700;7.962;2023-05-23T04:28:32;98805.91;;;15.53;100.00
5238;BME280;2639;49.700;7.962;2023-05-23T04:29:34;98823.66;;;15.47;100.00
5238;BME280;2639;49.700;7.962;2023-05-23T04:30:38;98821.22;;;15.50;100.00
5238;BME280;2639;49.700;7.962;2023-05-23T04:31:41;98819.63;;;15.52;99.95
5238;BME280;2639;49.700;7.962;2023-05-23T04:32:46;98813.31;;;15.47;100.00
5238;BME280;2639;49.700;7.962;2023-05-23T04:33:48;98820.44;;;15.51;100.00
5238;BME280;2639;49.700;7.962;2023-05-23T04:34:53;98812.22;;;15.58;99.88
5238;BME280;2639;49.700;7.962;2023-05-23T04:35:58;98809.63;;;15.58;100.00
5238;BME280;2639;49.700;7.962;2023-05-23T04:37:01;98812.56;;;15.64;100.00
5238;BME280;2639;49.700;7.962;2023-05-23T04:38:05;98814.72;;;15.71;100.00
5238;BME280;2639;49.700;7.962;2023-05-23T04:39:09;98815.69;;;15.73;99.06
5238;BME280;2639;49.700;7.962;2023-05-23T04:40:16;98818.09;;;15.70;96.35
5238;BME280;2639;49.700;7.962;2023-05-23T04:41:34;98806.97;;;15.71;96.78
5238;BME280;2639;49.700;7.962;2023-05-23T04:42:50;98821.22;;;15.65;96.12
5238;BME280;2639;49.700;7.962;2023-05-23T04:44:06;98821.22;;;15.65;96.83
5238;BME280;2639;49.700;7.962;2023-05-23T04:45:14;98829.50;;;15.59;95.73
5238;BME280;2639;49.700;7.962;2023-05-23T04:46:28;98830.97;;;15.54;96.23
5238;BME280;2639;49.700;7.962;2023-05-23T04:47:42;98841.31;;;15.54;97.83
5238;BME280;2639;49.700;7.962;2023-05-23T04:48:51;98832.41;;;15.49;96.37
5238;BME280;2639;49.700;7.962;2023-05-23T04:49:54;98837.56;;;15.49;96.72
5238;BME280;2639;49.700;7.962;2023-05-23T04:50:58;98834.88;;;15.47;96.66
5238;BME280;2639;49.700;7.962;2023-05-23T04:52:03;98842.75;;;15.49;97.26
5238;BME280;2639;49.700;7.962;2023-05-23T04:53:08;98838.63;;;15.52;97.72
5238;BME280;2639;49.700;7.962;2023-05-23T04:54:10;98848.97;;;15.52;96.85
5238;BME280;2639;49.700;7.962;2023-05-23T04:55:14;98842.75;;;15.49;97.83
5238;BME280;2639;49.700;7.962;2023-05-23T04:56:16;98839.34;;;15.50;97.37
5238;BME280;2639;49.700;7.962;2023-05-23T04:57:22;98844.72;;;15.53;97.21
5238;BME280;2639;49.700;7.962;2023-05-23T04:58:24;98846.91;;;15.62;97.72
5238;BME280;2639;49.700;7.962;2023-05-23T04:59:30;98852.19;;;15.63;96.19
5238;BME280;2639;49.700;7.962;2023-05-23T05:00:33;98848.81;;;15.64;96.58
5238;BME280;2639;49.700;7.962;2023-05-23T06:02:48;98893.28;;;15.72;94.74
5238;BME280;2639;49.700;7.962;2023-05-23T06:04:03;98907.25;;;15.75;94.66
5238;BME280;2639;49.700;7.962;2023-05-23T06:05:07;98900.72;;;15.82;94.37
5238;BME280;2639;49.700;7.962;2023-05-23T06:06:12;98901.63;;;15.83;93.25
5238;BME280;2639;49.700;7.962;2023-05-23T06:07:16;98908.44;;;15.81;92.11
5238;BME280;2639;49.700;7.962;2023-05-23T06:08:19;98910.03;;;15.78;92.56
5238;BME280;2639;49.700;7.962;2023-05-23T06:09:22;98919.69;;;15.81;92.10
5238;BME280;2639;49.700;7.962;2023-05-23T06:10:24;98913.63;;;15.81;90.93
5238;BME280;2639;49.700;7.962;2023-05-23T06:11:29;98915.22;;;15.78;89.32
5238;BME280;2639;49.700;7.962;2023-05-23T06:12:33;98908.25;;;15.77;89.77
5238;BME280;2639;49.700;7.962;2023-05-23T06:13:35;98915.03;;;15.75;88.86
5238;BME280;2639;49.700;7.962;2023-05-23T06:14:38;98909.84;;;15.75;89.29
5238;BME280;2639;49.700;7.962;2023-05-23T06:15:40;98910.38;;;15.85;89.56
5238;BME280;2639;49.700;7.962;2023-05-23T06:16:43;98911.19;;;15.84;88.46
5238;BME280;2639;49.700;7.962;2023-05-23T06:17:47;98916.47;;;15.85;87.25
5238;BME280;2639;49.700;7.962;2023-05-23T06:18:49;98922.53;;;15.86;85.94
5238;BME280;2639;49.700;7.962;2023-05-23T06:20:01;98923.25;;;15.83;84.79
5238;BME280;2639;49.700;7.962;2023-05-23T06:21:06;98917.00;;;15.80;85.24
5238;BME280;2639;49.700;7.962;2023-05-23T06:22:10;98917.81;;;15.78;85.49
5238;BME280;2639;49.700;7.962;2023-05-23T06:23:12;98930.94;;;15.82;85.72
5238;BME280;2639;49.700;7.962;2023-05-23T06:24:15;98919.31;;;15.90;85.31
5238;BME280;2639;49.700;7.962;2023-05-23T06:25:17;98933.41;;;15.95;84.77
5238;BME280;2639;49.700;7.962;2023-05-23T06:26:21;98918.91;;;15.98;83.46
5238;BME280;2639;49.700;7.962;2023-05-23T06:27:26;98930.19;;;15.99;83.63
5238;BME280;2639;49.700;7.962;2023-05-23T06:28:27;98918.91;;;15.98;83.24
5238;BME280;2639;49.700;7.962;2023-05-23T06:29:30;98919.75;;;15.97;83.34
5238;BME280;2639;49.700;7.962;2023-05-23T06:30:32;98915.44;;;15.98;84.34
5238;BME280;2639;49.700;7.962;2023-05-23T06:31:41;98914.09;;;16.05;85.20
5238;BME280;2639;49.700;7.962;2023-05-23T06:32:44;98913.38;;;16.07;83.45
5238;BME280;2639;49.700;7.962;2023-05-23T06:33:47;98911.59;;;16.06;83.94
5238;BME280;2639;49.700;7.962;2023-05-23T06:34:51;98917.81;;;16.10;83.82
5238;BME280;2639;49.700;7.962;2023-05-23T06:35:54;98904.97;;;16.11;83.63
5238;BME280;2639;49.700;7.962;2023-05-23T06:36:56;98908.53;;;16.13;82.49
5238;BME280;2639;49.700;7.962;2023-05-23T06:37:59;98908.53;;;16.13;83.73
5238;BME280;2639;49.700;7.962;2023-05-23T06:39:02;98920.50;;;16.11;82.58
5238;BME280;2639;49.700;7.962;2023-05-23T06:40:04;98916.94;;;16.09;82.44
5238;BME280;2639;49.700;7.962;2023-05-23T06:41:07;98918.38;;;16.04;82.99
5238;BME280;2639;49.700;7.962;2023-05-23T06:42:10;98913.28;;;16.06;84.42
5238;BME280;2639;49.700;7.962;2023-05-23T06:43:28;98919.19;;;16.03;82.90
5238;BME280;2639;49.700;7.962;2023-05-23T06:44:46;98911.41;;;16.03;83.36
5238;BME280;2639;49.700;7.962;2023-05-23T06:45:48;98918.53;;;16.07;83.86
5238;BME280;2639;49.700;7.962;2023-05-23T06:46:51;98922.28;;;16.12;84.59
5238;BME280;2639;49.700;7.962;2023-05-23T06:47:58;98917.44;;;16.18;83.44
5238;BME280;2639;49.700;7.962;2023-05-23T06:49:03;98924.16;;;16.15;82.78
5238;BME280;2639;49.700;7.962;2023-05-23T06:50:16;98920.34;;;16.08;83.39
5238;BME280;2639;49.700;7.962;2023-05-23T06:51:21;98917.56;;;16.05;83.99
5238;BME280;2639;49.700;7.962;2023-05-23T06:52:24;98920.50;;;16.11;84.02
5238;BME280;2639;49.700;7.962;2023-05-23T06:53:26;98919.44;;;16.08;83.58
5238;BME280;2639;49.700;7.962;2023-05-23T06:54:29;98928.91;;;16.07;83.40
5238;BME280;2639;49.700;7.962;2023-05-23T06:55:32;98923.88;;;16.10;85.25
5238;BME280;2639;49.700;7.962;2023-05-23T06:56:34;98923.72;;;16.07;83.48
5238;BME280;2639;49.700;7.962;2023-05-23T06:57:38;98923.72;;;16.07;83.75
5238;BME280;2639;49.700;7.962;2023-05-23T06:58:40;98926.88;;;16.02;83.45
5238;BME280;2639;49.700;7.962;2023-05-23T06:59:45;98930.97;;;15.98;84.50
5238;BME280;2639;49.700;7.962;2023-05-23T07:00:47;98937.97;;;15.99;85.09
5238;BME280;2639;49.700;7.962;2023-05-23T07:01:56;98928.75;;;16.04;85.62
5238;BME280;2639;49.700;7.962;2023-05-23T07:02:58;98930.34;;;16.02;84.43
5238;BME280;2639;49.700;7.962;2023-05-23T07:04:03;98932.94;;;16.02;84.50
5238;BME280;2639;49.700;7.962;2023-05-23T07:05:05;98941.50;;;16.01;84.97
5238;BME280;2639;49.700;7.962;2023-05-23T07:06:20;98940.91;;;15.90;84.85
5238;BME280;2639;49.700;7.962;2023-05-23T07:07:22;98938.75;;;15.98;84.97
5238;BME280;2639;49.700;7.962;2023-05-23T07:08:25;98953.50;;;15.99;85.93
5238;BME280;2639;49.700;7.962;2023-05-23T07:09:32;98947.59;;;16.02;85.86
5238;BME280;2639;49.700;7.962;2023-05-23T07:10:42;98952.53;;;15.97;85.53
5238;BME280;2639;49.700;7.962;2023-05-23T07:11:57;98954.13;;;15.95;84.75
5238;BME280;2639;49.700;7.962;2023-05-23T07:13:00;98956.88;;;15.98;85.83
5238;BME280;2639;49.700;7.962;2023-05-23T07:14:03;98950.56;;;15.93;84.59
5238;BME280;2639;49.700;7.962;2023-05-23T07:15:10;98958.06;;;15.88;84.89
5238;BME280;2639;49.700;7.962;2023-05-23T07:16:23;98959.84;;;15.89;85.76
5238;BME280;2639;49.700;7.962;2023-05-23T07:17:34;98955.56;;;15.90;86.12
5238;BME280;2639;49.700;7.962;2023-05-23T07:18:38;98957.34;;;15.91;85.74
5238;BME280;2639;49.700;7.962;2023-05-23T07:19:44;98961.63;;;15.90;85.39
5238;BME280;2639;49.700;7.962;2023-05-23T07:20:47;98956.47;;;15.90;86.15
5238;BME280;2639;49.700;7.962;2023-05-23T07:21:53;98958.78;;;15.86;85.81
5238;BME280;2639;49.700;7.962;2023-05-23T07:22:56;98960.75;;;15.90;86.23
5238;BME280;2639;49.700;7.962;2023-05-23T07:23:59;98967.16;;;15.96;86.67
5238;BME280;2639;49.700;7.962;2023-05-23T07:25:03;98957.69;;;15.97;86.37
5238;BME280;2639;49.700;7.962;2023-05-23T07:26:07;98961.28;;;15.99;85.57
5238;BME280;2639;49.700;7.962;2023-05-23T07:27:17;98963.03;;;16.00;84.93
5238;BME280;2639;49.700;7.962;2023-05-23T07:28:20;98964.81;;;16.01;85.49
5238;BME280;2639;49.700;7.962;2023-05-23T07:29:23;98955.53;;;16.05;85.87
5238;BME280;2639;49.700;7.962;2023-05-23T07:30:27;98965.53;;;16.13;85.26
5238;BME280;2639;49.700;7.962;2023-05-23T07:31:31;98962.13;;;16.14;84.33
5238;BME280;2639;49.700;7.962;2023-05-23T07:32:35;98966.41;;;16.14;83.90
5238;BME280;2639;49.700;7.962;2023-05-23T07:33:39;98958.91;;;16.18;84.13
5238;BME280;2639;49.700;7.962;2023-05-23T07:34:45;98965.69;;;16.16;83.50
5238;BME280;2639;49.700;7.962;2023-05-23T07:35:47;98963.91;;;16.15;84.07
5238;BME280;2639;49.700;7.962;2023-05-23T07:36:49;98964.72;;;16.14;83.86
5238;BME280;2639;49.700;7.962;2023-05-23T07:37:53;98956.94;;;16.14;84.25
5238;BME280;2639;49.700;7.962;2023-05-23T07:38:57;98960.50;;;16.16;84.17
5238;BME280;2639;49.700;7.962;2023-05-23T07:39:59;98961.66;;;16.22;84.25
5238;BME280;2639;49.700;7.962;2023-05-23T07:41:03;98960.50;;;16.16;84.40
5238;BME280;2639;49.700;7.962;2023-05-23T07:42:13;98967.94;;;16.10;83.79
5238;BME280;2639;49.700;7.962;2023-05-23T07:43:16;98966.78;;;16.05;84.04
5238;BME280;2639;49.700;7.962;2023-05-23T07:44:18;98967.59;;;16.04;84.67
5238;BME280;2639;49.700;7.962;2023-05-23T07:45:25;98969.63;;;16.10;85.21
5238;BME280;2639;49.700;7.962;2023-05-23T07:46:29;98969.78;;;16.13;84.26
5238;BME280;2639;49.700;7.962;2023-05-23T07:47:31;98968.13;;;16.13;84.56
5238;BME280;2639;49.700;7.962;2023-05-23T07:48:34;98966.78;;;16.20;83.76
5238;BME280;2639;49.700;7.962;2023-05-23T07:49:37;98962.63;;;16.24;84.04
5238;BME280;2639;49.700;7.962;2023-05-23T07:50:41;98960.88;;;16.23;83.49
5238;BME280;2639;49.700;7.962;2023-05-23T07:51:44;98969.94;;;16.31;83.55
5238;BME280;2639;49.700;7.962;2023-05-23T07:52:46;98963.31;;;16.36;84.25
5238;BME280;2639;49.700;7.962;2023-05-23T07:53:56;98960.75;;;16.52;84.34
5238;BME280;2639;49.700;7.962;2023-05-23T07:54:59;98962.41;;;16.67;82.88
5238;BME280;2639;49.700;7.962;2023-05-23T07:56:02;98960.13;;;16.73;82.04
5238;BME280;2639;49.700;7.962;2023-05-23T07:57:09;98962.47;;;16.83;82.37
5238;BME280;2639;49.700;7.962;2023-05-23T07:58:12;98956.28;;;16.97;81.96
5238;BME280;2639;49.700;7.962;2023-05-23T07:59:15;98949.22;;;17.11;81.50
5238;BME280;2639;49.700;7.962;2023-05-23T08:00:20;98944.81;;;17.27;81.97
5238;BME280;2639;49.700;7.962;2023-05-23T08:01:28;98952.59;;;17.43;81.90
5238;BME280;2639;49.700;7.962;2023-05-23T08:02:35;98949.50;;;17.50;78.28
5238;BME280;2639;49.700;7.962;2023-05-23T08:03:38;98948.59;;;17.50;77.74
5238;BME280;2639;49.700;7.962;2023-05-23T08:04:47;98948.53;;;17.48;76.87
5238;BME280;2639;49.700;7.962;2023-05-23T08:05:52;98950.38;;;17.51;78.17
5238;BME280;2639;49.700;7.962;2023-05-23T08:06:55;98951.41;;;17.54;77.34
5238;BME280;2639;49.700;7.962;2023-05-23T08:08:15;98953.06;;;17.52;76.78
5238;BME280;2639;49.700;7.962;2023-05-23T08:09:18;98951.41;;;17.54;77.53
5238;BME280;2639;49.700;7.962;2023-05-23T08:10:25;98947.28;;;17.58;77.19
5238;BME280;2639;49.700;7.962;2023-05-23T08:11:31;98946.44;;;17.59;76.43
5238;BME280;2639;49.700;7.962;2023-05-23T08:12:34;98952.16;;;17.52;76.48
5238;BME280;2639;49.700;7.962;2023-05-23T08:13:44;98958.69;;;17.43;76.93
5238;BME280;2639;49.700;7.962;2023-05-23T08:15:08;98945.75;;;17.45;78.28
5238;BME280;2639;49.700;7.962;2023-05-23T08:16:16;98952.16;;;17.52;77.96
5238;BME280;2639;49.700;7.962;2023-05-23T08:17:19;98959.28;;;17.56;77.26
5238;BME280;2639;49.700;7.962;2023-05-23T08:18:22;98964.63;;;17.59;77.39
5238;BME280;2639;49.700;7.962;2023-05-23T08:19:25;98960.16;;;17.56;76.36
5238;BME280;2639;49.700;7.962;2023-05-23T08:20:28;98956.78;;;17.57;75.60
5238;BME280;2639;49.700;7.962;2023-05-23T08:21:35;98962.06;;;17.42;76.12
5238;BME280;2639;49.700;7.962;2023-05-23T08:22:38;98959.69;;;17.29;77.33
5238;BME280;2639;49.700;7.962;2023-05-23T08:23:41;98958.72;;;17.27;77.75
5238;BME280;2639;49.700;7.962;2023-05-23T08:24:42;98962.34;;;17.31;78.29
5238;BME280;2639;49.700;7.962;2023-05-23T08:25:45;98967.72;;;17.34;78.21
5238;BME280;2639;49.700;7.962;2023-05-23T08:26:49;98966.97;;;17.36;78.35
5238;BME280;2639;49.700;7.962;2023-05-23T08:27:51;98965.34;;;17.38;77.87
5238;BME280;2639;49.700;7.962;2023-05-23T08:29:09;98967.25;;;17.42;78.66
5238;BME280;2639;49.700;7.962;2023-05-23T08:30:12;98963.69;;;17.40;79.63
5238;BME280;2639;49.700;7.962;2023-05-23T08:31:14;98970.06;;;17.29;77.70
5238;BME280;2639;49.700;7.962;2023-05-23T08:32:18;98966.16;;;17.21;78.41
5238;BME280;2639;49.700;7.962;2023-05-23T08:33:20;98962.59;;;17.19;78.05
5238;BME280;2639;49.700;7.962;2023-05-23T08:34:24;98972.97;;;17.19;78.92
5238;BME280;2639;49.700;7.962;2023-05-23T08:35:26;98975.91;;;17.25;79.32
5238;BME280;2639;49.700;7.962;2023-05-23T08:36:30;98974.03;;;17.22;78.90
5238;BME280;2639;49.700;7.962;2023-05-23T08:37:36;98970.78;;;17.27;80.19
5238;BME280;2639;49.700;7.962;2023-05-23T08:38:39;98968.00;;;17.40;79.06
5238;BME280;2639;49.700;7.962;2023-05-23T08:39:47;98972.69;;;17.47;78.15
5238;BME280;2639;49.700;7.962;2023-05-23T08:41:14;98968.50;;;17.67;78.92
5238;BME280;2639;49.700;7.962;2023-05-23T08:42:19;98965.91;;;17.83;78.72
5238;BME280;2639;49.700;7.962;2023-05-23T08:43:22;98965.63;;;18.13;78.46
5238;BME280;2639;49.700;7.962;2023-05-23T08:44:24;98964.38;;;18.42;76.96
5238;BME280;2639;49.700;7.962;2023-05-23T08:45:31;98959.88;;;18.76;77.20
5238;BME280;2639;49.700;7.962;2023-05-23T08:46:39;98952.63;;;19.07;75.71
5238;BME280;2639;49.700;7.962;2023-05-23T08:47:53;98963.38;;;19.34;73.15
5238;BME280;2639;49.700;7.962;2023-05-23T08:48:58;98959.25;;;19.59;72.30
5238;BME280;2639;49.700;7.962;2023-05-23T08:50:03;98955.19;;;19.66;70.38
5238;BME280;2639;49.700;7.962;2023-05-23T08:51:09;98970.66;;;19.63;69.45
5238;BME280;2639;49.700;7.962;2023-05-23T08:52:13;98970.16;;;19.50;71.65
5238;BME280;2639;49.700;7.962;2023-05-23T08:53:22;98971.78;;;19.48;72.33
5238;BME280;2639;49.700;7.962;2023-05-23T08:54:35;98981.28;;;19.27;70.85
5238;BME280;2639;49.700;7.962;2023-05-23T08:55:38;98974.44;;;19.09;70.12
5238;BME280;2639;49.700;7.962;2023-05-23T08:56:42;98977.88;;;19.08;71.63
5238;BME280;2639;49.700;7.962;2023-05-23T08:57:45;98981.81;;;19.00;71.86
5238;BME280;2639;49.700;7.962;2023-05-23T08:59:00;98971.84;;;18.90;71.28
5238;BME280;2639;49.700;7.962;2023-05-23T09:00:04;98972.78;;;18.92;71.40
5238;BME280;2639;49.700;7.962;2023-05-23T09:01:12;98981.69;;;18.97;71.53
5238;BME280;2639;49.700;7.962;2023-05-23T09:02:15;98981.03;;;19.01;72.52
5238;BME280;2639;49.700;7.962;2023-05-23T09:03:21;98976.06;;;18.88;70.86
5238;BME280;2639;49.700;7.962;2023-05-23T09:04:40;98979.97;;;18.78;71.56
5238;BME280;2639;49.700;7.962;2023-05-23T09:05:48;98982.34;;;18.74;71.85
5238;BME280;2639;49.700;7.962;2023-05-23T09:06:54;98985.09;;;18.77;72.67
5238;BME280;2639;49.700;7.962;2023-05-23T09:07:56;98989.34;;;18.57;71.74
5238;BME280;2639;49.700;7.962;2023-05-23T09:09:01;98994.13;;;18.47;72.65
5238;BME280;2639;49.700;7.962;2023-05-23T09:10:07;98990.16;;;18.38;72.49
5238;BME280;2639;49.700;7.962;2023-05-23T09:11:10;98996.88;;;18.33;73.44
5238;BME280;2639;49.700;7.962;2023-05-23T09:12:14;98994.00;;;18.26;73.56
5238;BME280;2639;49.700;7.962;2023-05-23T09:13:50;98988.91;;;18.12;73.51
5238;BME280;2639;49.700;7.962;2023-05-23T09:14:55;99000.72;;;18.05;74.67
5238;BME280;2639;49.700;7.962;2023-05-23T09:16:01;98991.00;;;18.01;74.73
5238;BME280;2639;49.700;7.962;2023-05-23T09:17:08;98995.38;;;18.02;75.10
5238;BME280;2639;49.700;7.962;2023-05-23T09:18:11;98991.00;;;18.01;74.88
5238;BME280;2639;49.700;7.962;2023-05-23T09:19:15;98991.91;;;18.01;75.22
5238;BME280;2639;49.700;7.962;2023-05-23T09:20:52;98989.34;;;18.03;75.22
5238;BME280;2639;49.700;7.962;2023-05-23T09:21:55;98993.44;;;17.98;75.96
5238;BME280;2639;49.700;7.962;2023-05-23T09:23:04;99000.03;;;17.91;75.72
5238;BME280;2639;49.700;7.962;2023-05-23T09:24:08;98992.34;;;17.93;76.01
5238;BME280;2639;49.700;7.962;2023-05-23T09:25:10;98997.66;;;17.96;76.44
5238;BME280;2639;49.700;7.962;2023-05-23T09:26:15;99001.09;;;17.95;77.25
5238;BME280;2639;49.700;7.962;2023-05-23T09:27:17;98996.03;;;17.98;76.80
5238;BME280;2639;49.700;7.962;2023-05-23T09:28:20;98998.72;;;17.99;77.21
5238;BME280;2639;49.700;7.962;2023-05-23T09:29:24;98995.91;;;17.95;77.54
5238;BME280;2639;49.700;7.962;2023-05-23T09:30:27;98994.38;;;17.82;76.79
5238;BME280;2639;49.700;7.962;2023-05-23T09:31:31;99005.84;;;17.85;78.23
5238;BME280;2639;49.700;7.962;2023-05-23T09:32:36;98999.00;;;17.87;76.88
5238;BME280;2639;49.700;7.962;2023-05-23T09:33:42;98997.38;;;17.90;77.18
5238;BME280;2639;49.700;7.962;2023-05-23T09:34:54;99001.38;;;18.01;78.47
5238;BME280;2639;49.700;7.962;2023-05-23T09:35:58;99001.56;;;18.04;77.85
5238;BME280;2639;49.700;7.962;2023-05-23T09:37:02;99008.69;;;18.08;78.01
5238;BME280;2639;49.700;7.962;2023-05-23T09:38:06;99006.88;;;18.07;75.90
5238;BME280;2639;49.700;7.962;2023-05-23T09:39:10;99006.16;;;18.09;75.77
5238;BME280;2639;49.700;7.962;2023-05-23T09:40:14;99008.69;;;18.08;75.52
5238;BME280;2639;49.700;7.962;2023-05-23T09:41:23;99005.13;;;18.06;75.60
5238;BME280;2639;49.700;7.962;2023-05-23T09:42:31;98997.00;;;18.00;75.55
5238;BME280;2639;49.700;7.962;2023-05-23T09:43:33;99003.91;;;17.99;75.23
5238;BME280;2639;49.700;7.962;2023-05-23T09:44:40;99001.00;;;17.93;75.91
5238;BME280;2639;49.700;7.962;2023-05-23T09:45:43;99005.84;;;17.85;75.86
5238;BME280;2639;49.700;7.962;2023-05-23T09:46:49;99003.16;;;17.84;77.35
5238;BME280;2639;49.700;7.962;2023-05-23T09:47:54;99001.97;;;17.95;77.62
5238;BME280;2639;49.700;7.962;2023-05-23T09:48:57;99009.25;;;18.02;77.10
5238;BME280;2639;49.700;7.962;2023-05-23T09:50:01;99010.16;;;18.03;75.13
5238;BME280;2639;49.700;7.962;2023-05-23T09:51:03;99007.53;;;18.03;74.57
5238;BME280;2639;49.700;7.962;2023-05-23T09:52:07;98997.97;;;18.02;74.54
5238;BME280;2639;49.700;7.962;2023-05-23T09:53:09;99015.19;;;18.00;76.09
5238;BME280;2639;49.700;7.962;2023-05-23T09:54:13;98997.84;;;17.99;75.45
5238;BME280;2639;49.700;7.962;2023-05-23T09:55:15;99001.25;;;17.98;76.02
5238;BME280;2639;49.700;7.962;2023-05-23T09:56:18;99005.78;;;18.02;76.86
5238;BME280;2639;49.700;7.962;2023-05-23T09:57:22;99004.16;;;18.04;77.16